createdAt,value
2023-03-06T00:02:25.408Z,171.17
2023-03-06T00:07:27.732Z,153.80
2023-03-06T00:12:30.138Z,125.43
2023-03-06T00:17:32.537Z,142.17
2023-03-06T00:22:34.906Z,147.97
2023-03-06T00:27:37.216Z,138.47
2023-03-06T00:32:39.668Z,143.30
2023-03-06T00:37:42.498Z,192.23
2023-03-06T00:42:46.374Z,162.37
2023-03-06T00:47:48.728Z,218.63
2023-03-06T00:52:51.112Z,228.87
2023-03-06T00:57:53.509Z,229.70
2023-03-06T01:02:56.107Z,199.43
2023-03-06T01:07:58.465Z,178.87
2023-03-06T01:13:02.384Z,193.13
2023-03-06T01:18:04.860Z,187.40
2023-03-06T01:23:07.216Z,212.50
2023-03-06T01:28:09.603Z,186.83
2023-03-06T01:33:11.988Z,149.27
2023-03-06T01:38:14.469Z,140.23
2023-03-06T01:43:28.779Z,153.37
2023-03-06T01:48:31.286Z,147.27
2023-03-06T01:53:33.728Z,112.70
2023-03-06T01:58:36.393Z,93.60
2023-03-06T02:03:40.234Z,92.53
2023-03-06T02:08:42.627Z,89.73
2023-03-06T02:13:46.021Z,99.30
2023-03-06T02:18:49.901Z,102.60
2023-03-06T02:24:09.844Z,91.33
2023-03-06T02:29:12.364Z,117.43
2023-03-06T02:34:14.769Z,110.10
2023-03-06T02:39:21.677Z,94.83
2023-03-06T02:44:25.939Z,98.03
2023-03-06T02:49:28.400Z,95.83
2023-03-06T02:54:30.805Z,116.10
2023-03-06T02:59:33.249Z,101.47
2023-03-06T03:04:37.020Z,93.43
2023-03-06T03:09:39.735Z,130.23
2023-03-06T03:14:42.247Z,135.10
2023-03-06T03:19:44.676Z,136.70
2023-03-06T03:24:47.412Z,102.60
2023-03-06T03:29:49.956Z,88.70
2023-03-06T03:34:54.674Z,81.00
2023-03-06T03:39:58.829Z,83.20
2023-03-06T03:45:01.770Z,123.03
2023-03-06T03:50:04.968Z,119.43
2023-03-06T03:55:08.027Z,113.10
2023-03-06T04:00:16.314Z,110.47
2023-03-06T04:05:38.725Z,93.97
2023-03-06T04:10:43.330Z,88.33
2023-03-06T04:15:49.653Z,104.37
2023-03-06T04:20:52.243Z,104.23
2023-03-06T04:25:54.800Z,94.20
2023-03-06T04:30:58.188Z,104.50
2023-03-06T04:36:01.384Z,107.80
2023-03-06T04:41:06.758Z,95.00
2023-03-06T04:46:11.154Z,74.83
2023-03-06T04:51:14.602Z,91.73
2023-03-06T04:56:16.938Z,85.50
2023-03-06T05:01:19.281Z,80.43
2023-03-06T05:06:21.701Z,50.07
2023-03-06T05:11:24.030Z,61.63
2023-03-06T05:16:26.445Z,66.43
2023-03-06T05:21:28.732Z,90.80
2023-03-06T05:26:31.077Z,73.90
2023-03-06T05:31:33.423Z,92.03
2023-03-06T05:36:36.067Z,84.03
2023-03-06T05:41:38.397Z,73.47
2023-03-06T05:46:40.796Z,60.10
2023-03-06T05:51:43.082Z,50.47
2023-03-06T05:56:45.400Z,35.23
2023-03-06T06:01:47.696Z,23.50
2023-03-06T06:06:58.537Z,17.93
2023-03-06T06:12:02.576Z,17.50
2023-03-06T06:17:05.448Z,33.07
2023-03-06T06:22:08.327Z,16.47
2023-03-06T06:27:10.673Z,26.10
2023-03-06T06:32:13.108Z,19.27
2023-03-06T06:37:16.331Z,34.33
2023-03-06T06:42:32.592Z,30.67
2023-03-06T06:47:41.338Z,34.87
2023-03-06T06:52:44.112Z,76.57
2023-03-06T06:57:46.602Z,98.33
2023-03-06T07:02:49.359Z,50.03
2023-03-06T07:07:51.738Z,66.67
2023-03-06T07:12:54.592Z,83.67
2023-03-06T07:17:57.290Z,97.53
2023-03-06T07:22:59.716Z,59.83
2023-03-06T07:28:02.097Z,62.03
2023-03-06T07:33:04.733Z,72.97
2023-03-06T07:38:07.079Z,46.80
2023-03-06T07:43:19.055Z,37.93
2023-03-06T07:48:29.364Z,44.17
2023-03-06T07:53:32.649Z,24.77
2023-03-06T07:58:36.520Z,26.77
2023-03-06T08:03:39.061Z,93.67
2023-03-06T08:08:44.677Z,56.53
2023-03-06T08:13:48.779Z,33.80
2023-03-06T08:18:51.465Z,23.50
2023-03-06T08:23:53.872Z,46.03
2023-03-06T08:28:58.838Z,26.57
2023-03-06T08:34:05.056Z,27.07
2023-03-06T08:39:08.225Z,33.07
2023-03-06T08:44:11.115Z,27.67
2023-03-06T08:49:14.021Z,26.27
2023-03-06T08:54:16.382Z,31.53
2023-03-06T08:59:18.765Z,41.00
2023-03-06T09:04:21.185Z,39.60
2023-03-06T09:09:23.474Z,46.47
2023-03-06T09:14:25.856Z,62.73
2023-03-06T09:19:28.413Z,65.97
2023-03-06T09:24:30.854Z,74.93
2023-03-06T09:29:33.146Z,58.40
2023-03-06T09:34:36.053Z,70.17
2023-03-06T09:39:38.490Z,58.90
2023-03-06T09:44:42.629Z,61.47
2023-03-06T09:49:44.955Z,61.03
2023-03-06T09:54:52.489Z,44.90
2023-03-06T09:59:57.372Z,77.43
2023-03-06T10:05:04.114Z,52.50
2023-03-06T10:10:11.320Z,40.93
2023-03-06T10:15:21.190Z,45.47
2023-03-06T10:20:29.297Z,69.40
2023-03-06T10:25:52.786Z,45.93
2023-03-06T10:31:34.422Z,108.17
2023-03-06T10:36:36.739Z,67.03
2023-03-06T10:41:39.081Z,160.90
2023-03-06T10:46:44.555Z,110.17
2023-03-06T10:52:09.209Z,63.07
2023-03-06T10:57:20.527Z,108.90
2023-03-06T11:02:39.480Z,65.87
2023-03-06T11:08:00.318Z,54.07
2023-03-06T11:13:21.159Z,264.60
2023-03-06T11:18:38.711Z,37.77
2023-03-06T11:23:47.569Z,39.13
2023-03-06T11:28:54.955Z,38.90
2023-03-06T11:34:21.408Z,45.57
2023-03-06T11:39:29.613Z,41.93
2023-03-06T11:45:03.347Z,35.47
2023-03-06T11:50:21.661Z,49.47
2023-03-06T11:55:35.976Z,66.33
2023-03-06T12:01:00.491Z,42.67
2023-03-06T12:06:18.306Z,49.97
2023-03-06T12:11:32.816Z,54.33
2023-03-06T12:17:08.960Z,39.80
2023-03-06T12:22:31.397Z,47.00
2023-03-06T12:27:40.455Z,34.17
2023-03-06T12:33:10.131Z,41.93
2023-03-06T12:38:30.818Z,48.83
2023-03-06T12:44:29.992Z,44.20
2023-03-06T12:49:38.675Z,45.97
2023-03-06T12:54:41.785Z,46.03
2023-03-06T12:59:48.011Z,40.23
2023-03-06T13:05:07.417Z,24.63
2023-03-06T13:10:20.362Z,25.30
2023-03-06T13:16:03.473Z,17.80
2023-03-06T13:21:05.830Z,18.87
2023-03-06T13:26:26.068Z,35.23
2023-03-06T13:31:36.342Z,26.27
2023-03-06T13:36:39.885Z,31.23
2023-03-06T13:41:57.713Z,143.80
2023-03-06T13:47:05.097Z,39.20
2023-03-06T13:52:18.188Z,78.20
2023-03-06T13:57:20.530Z,21.67
2023-03-06T14:02:37.657Z,76.73
2023-03-06T14:07:43.159Z,76.83
2023-03-06T14:12:51.558Z,63.97
2023-03-06T14:17:59.423Z,57.93
2023-03-06T14:23:34.387Z,106.30
2023-03-06T14:28:37.149Z,86.13
2023-03-06T14:33:39.497Z,57.03
2023-03-06T14:39:00.889Z,17.17
2023-03-06T14:44:18.156Z,94.47
2023-03-06T14:49:22.348Z,54.77
2023-03-06T14:54:31.346Z,89.47
2023-03-06T14:59:45.293Z,85.63
2023-03-06T15:04:53.008Z,55.23
2023-03-06T15:09:55.942Z,50.83
2023-03-06T15:15:00.185Z,31.70
2023-03-06T15:20:02.565Z,72.27
2023-03-06T15:25:30.887Z,44.80
2023-03-06T15:30:36.256Z,48.10
2023-03-06T15:35:38.923Z,55.87
2023-03-06T15:40:53.549Z,32.97
2023-03-06T15:45:59.718Z,49.80
2023-03-06T15:51:02.341Z,85.80
2023-03-06T15:56:04.970Z,90.20
2023-03-06T16:01:08.263Z,73.10
2023-03-06T16:06:24.379Z,68.20
2023-03-06T16:11:42.023Z,39.53
2023-03-06T16:16:46.280Z,38.27
2023-03-06T16:21:48.844Z,38.17
2023-03-06T16:26:52.753Z,61.73
2023-03-06T16:31:56.660Z,86.00
2023-03-06T16:36:59.014Z,217.33
2023-03-06T16:42:01.307Z,230.90
2023-03-06T16:47:06.238Z,490.23
2023-03-06T16:52:10.868Z,373.80
2023-03-06T16:57:14.771Z,236.63
2023-03-06T17:02:17.183Z,186.17
2023-03-06T17:07:19.600Z,146.87
2023-03-06T17:12:21.908Z,424.13
2023-03-06T17:17:24.301Z,252.97
2023-03-06T17:22:27.427Z,439.70
2023-03-06T17:27:30.063Z,255.43
2023-03-06T17:32:32.868Z,191.80
2023-03-06T17:37:35.571Z,169.87
2023-03-06T17:42:37.963Z,205.33
2023-03-06T17:47:40.318Z,208.73
2023-03-06T17:52:42.661Z,204.83
2023-03-06T17:57:44.986Z,213.63
2023-03-06T18:02:47.313Z,178.47
2023-03-06T18:07:49.640Z,181.53
2023-03-06T18:12:52.044Z,161.60
2023-03-06T18:17:56.484Z,128.33
2023-03-06T18:23:03.377Z,169.93
2023-03-06T18:28:06.142Z,169.07
2023-03-06T18:33:09.449Z,177.40
2023-03-06T18:38:11.795Z,180.83
2023-03-06T18:43:14.177Z,232.47
2023-03-06T18:48:16.530Z,177.00
2023-03-06T18:53:20.044Z,249.63
2023-03-06T18:58:22.554Z,310.40
2023-03-06T19:03:25.166Z,306.90
2023-03-06T19:08:27.533Z,330.13
2023-03-06T19:13:30.405Z,519.50
2023-03-06T19:18:32.968Z,307.20
2023-03-06T19:23:35.418Z,202.53
2023-03-06T19:28:39.830Z,193.73
2023-03-06T19:33:43.108Z,203.03
2023-03-06T19:38:50.276Z,223.87
2023-03-06T19:43:55.483Z,163.90
2023-03-06T19:48:59.968Z,158.00
2023-03-06T19:54:02.284Z,160.30
2023-03-06T19:59:04.627Z,216.73
2023-03-06T20:04:07.315Z,260.97
2023-03-06T20:09:11.240Z,607.60
2023-03-06T20:14:13.634Z,413.77
2023-03-06T20:19:16.389Z,591.33
2023-03-06T20:24:19.188Z,514.73
2023-03-06T20:29:21.472Z,492.77
2023-03-06T20:34:25.004Z,708.13
2023-03-06T20:39:27.608Z,515.87
2023-03-06T20:44:30.157Z,361.30
2023-03-06T20:49:32.534Z,375.73
2023-03-06T20:54:35.274Z,359.37
2023-03-06T20:59:37.660Z,385.40
2023-03-06T21:04:41.114Z,257.93
2023-03-06T21:09:44.561Z,281.43
2023-03-06T21:14:46.932Z,318.33
2023-03-06T21:19:49.294Z,819.03
2023-03-06T21:24:51.743Z,525.90
2023-03-06T21:29:54.086Z,417.07
2023-03-06T21:34:56.410Z,383.53
2023-03-06T21:40:00.224Z,301.63
2023-03-06T21:45:04.182Z,250.33
2023-03-06T21:50:08.479Z,204.97
2023-03-06T21:55:10.789Z,276.47
2023-03-06T22:00:13.315Z,384.83
2023-03-06T22:05:16.328Z,674.67
2023-03-06T22:10:18.765Z,485.77
2023-03-06T22:15:21.926Z,303.37
2023-03-06T22:20:24.250Z,274.53
2023-03-06T22:25:26.568Z,220.73
2023-03-06T22:30:28.949Z,288.73
2023-03-06T22:35:31.540Z,255.43
2023-03-06T22:40:34.207Z,284.17
2023-03-06T22:45:36.704Z,224.00
2023-03-06T22:50:39.098Z,191.03
2023-03-06T22:55:41.418Z,493.83
2023-03-06T23:00:43.737Z,396.43
2023-03-06T23:05:46.038Z,235.03
2023-03-06T23:10:48.461Z,210.90
2023-03-06T23:16:09.955Z,280.83
2023-03-06T23:21:30.946Z,744.17
2023-03-06T23:26:51.796Z,394.73
2023-03-06T23:31:54.168Z,211.50
2023-03-06T23:36:56.501Z,250.87
2023-03-06T23:41:59.390Z,203.10
2023-03-06T23:47:01.724Z,246.60
2023-03-06T23:52:04.433Z,262.27
2023-03-06T23:57:06.892Z,231.23
